Time;durP1;ratioP1;P1;durP2;ratioP2;P2;SDS_P1;SDS_P2;PMS_P1;PMS_P2;Temp;Humidity;BMP_temperature;BMP_pressure;BME280_temperature;BME280_humidity;BME280_pressure;Samples;Min_cycle;Max_cycle;Signal;HPM_P1;HPM_P2
2020/12/20 00:00:42;;;;;;;6.50;4.07;;;;;;;6.13;68.76;100182.53;3169019;27;20118;-78
2020/12/20 00:02:14;;;;;;;10.52;5.32;;;;;;;6.03;68.91;100190.31;3163903;28;20509;-79
2020/12/20 00:03:45;;;;;;;7.78;4.15;;;;;;;6.01;68.89;100191.38;3161021;28;20051;-79
2020/12/20 00:05:18;;;;;;;8.88;4.82;;;;;;;6.01;68.98;100186.94;3172861;27;20117;-80
2020/12/20 00:06:49;;;;;;;8.18;4.10;;;;;;;6.01;68.88;100186.94;3173696;27;20046;-79
2020/12/20 00:08:20;;;;;;;8.70;4.28;;;;;;;5.99;68.80;100185.31;3164102;28;20051;-79
2020/12/20 00:09:51;;;;;;;6.43;3.95;;;;;;;5.97;68.68;100184.56;3176451;27;20073;-79
2020/12/20 00:11:22;;;;;;;8.40;4.32;;;;;;;5.96;68.73;100186.38;3168522;27;20047;-80
2020/12/20 00:12:54;;;;;;;7.28;3.85;;;;;;;5.98;68.69;100189.75;3165865;28;20052;-80
2020/12/20 00:14:28;;;;;;;7.60;3.92;;;;;;;6.01;68.43;100192.25;3173328;27;20387;-80
2020/12/20 00:15:59;;;;;;;6.63;4.03;;;;;;;5.99;68.54;100186.19;3176069;28;20039;-80
2020/12/20 00:17:37;;;;;;;7.47;4.30;;;;;;;5.96;68.46;100185.53;3169453;28;20056;-79
2020/12/20 00:19:07;;;;;;;9.25;4.90;;;;;;;5.91;68.52;100185.88;3167444;27;20454;-79
2020/12/20 00:20:39;;;;;;;7.45;4.18;;;;;;;5.88;68.54;100172.81;3170691;28;20078;-79
2020/12/20 00:22:14;;;;;;;7.72;4.20;;;;;;;5.88;68.62;100183.44;3161936;28;20108;-79
2020/12/20 00:23:44;;;;;;;9.07;4.78;;;;;;;5.85;68.76;100188.97;3162560;28;20058;-79
2020/12/20 00:25:16;;;;;;;8.50;4.68;;;;;;;5.73;68.83;100178.28;3165099;27;20048;-79
2020/12/20 00:26:47;;;;;;;8.05;4.70;;;;;;;5.69;68.94;100179.44;3171849;28;20043;-79
2020/12/20 00:28:20;;;;;;;8.70;4.25;;;;;;;5.68;68.95;100179.56;3167495;28;20050;-79
2020/12/20 00:29:51;;;;;;;7.45;4.00;;;;;;;5.68;68.92;100176.91;3167357;28;20063;-78
2020/12/20 00:31:22;;;;;;;6.55;3.47;;;;;;;5.70;68.93;100181.16;3164423;27;20048;-79
2020/12/20 00:32:54;;;;;;;7.82;4.63;;;;;;;5.72;68.71;100176.59;3166101;28;20413;-79
2020/12/20 00:34:25;;;;;;;6.93;3.88;;;;;;;5.68;68.92;100177.75;3169954;28;20039;-79
2020/12/20 00:37:42;;;;;;;9.02;4.90;;;;;;;5.69;68.83;100174.16;3187192;27;20365;-79
2020/12/20 00:39:14;;;;;;;6.50;3.92;;;;;;;5.69;68.91;100171.50;3162759;28;20055;-78
2020/12/20 00:40:45;;;;;;;6.25;3.28;;;;;;;5.73;68.91;100178.28;3164359;28;20052;-78
2020/12/20 00:42:16;;;;;;;7.18;4.20;;;;;;;5.76;68.71;100180.69;3164876;28;20040;-79
2020/12/20 00:43:47;;;;;;;6.50;4.18;;;;;;;5.80;68.61;100185.78;3167745;28;20076;-79
2020/12/20 00:45:19;;;;;;;6.68;3.30;;;;;;;5.81;68.70;100175.06;3169833;28;20100;-79
2020/12/20 00:46:50;;;;;;;5.30;2.83;;;;;;;5.86;68.64;100172.06;3165951;27;20064;-78
2020/12/20 00:48:22;;;;;;;8.43;3.53;;;;;;;5.86;68.52;100177.38;3169903;28;20144;-79
2020/12/20 00:49:53;;;;;;;7.38;3.40;;;;;;;5.87;68.60;100177.28;3170107;27;20063;-78
2020/12/20 00:51:24;;;;;;;6.75;4.05;;;;;;;5.86;68.62;100164.97;3176759;27;20051;-78
2020/12/20 00:52:57;;;;;;;6.65;3.72;;;;;;;5.81;68.74;100172.41;3168744;27;20552;-78
2020/12/20 00:54:28;;;;;;;5.75;3.28;;;;;;;5.84;68.61;100176.66;3185006;27;20047;-78
2020/12/20 00:55:59;;;;;;;6.65;3.63;;;;;;;5.81;68.64;100172.41;3179555;27;20113;-78
2020/12/20 00:59:21;;;;;;;7.97;3.80;;;;;;;5.72;68.98;100162.47;3176263;27;20439;-78
2020/12/20 01:00:52;;;;;;;8.50;4.50;;;;;;;5.71;68.93;100161.63;3171860;28;20040;-78
2020/12/20 01:02:23;;;;;;;9.25;5.10;;;;;;;5.71;68.87;100161.63;3181525;27;20046;-78
2020/12/20 01:03:54;;;;;;;6.57;3.80;;;;;;;5.67;69.01;100162.78;3181162;27;20078;-78
2020/12/20 01:05:25;;;;;;;7.50;4.32;;;;;;;5.67;69.07;100167.25;3169989;27;20051;-78
2020/12/20 01:06:56;;;;;;;7.03;3.90;;;;;;;5.67;69.05;100168.09;3176023;27;20050;-78
2020/12/20 01:08:28;;;;;;;7.28;4.07;;;;;;;5.68;69.08;100168.97;3186596;27;20053;-78
2020/12/20 01:09:59;;;;;;;6.07;3.55;;;;;;;5.67;68.93;100168.09;3189675;27;20483;-78
2020/12/20 01:13:15;;;;;;;9.25;4.68;;;;;;;5.69;69.03;100168.00;3202160;27;20365;-78
2020/12/20 01:16:32;;;;;;;8.10;4.30;;;;;;;5.68;68.96;100183.06;3185475;27;20383;-77
2020/12/20 01:18:03;;;;;;;8.18;3.78;;;;;;;5.70;68.93;100181.16;3185319;27;20050;-77
2020/12/20 01:19:35;;;;;;;6.95;3.90;;;;;;;5.74;68.84;100187.94;3180190;28;20047;-77
2020/12/20 01:21:05;;;;;;;7.30;3.60;;;;;;;5.74;68.66;100192.38;3179886;27;20055;-78
2020/12/20 01:22:37;;;;;;;6.55;3.88;;;;;;;5.80;68.71;100188.44;3176256;27;20052;-78
2020/12/20 01:24:10;;;;;;;7.50;4.43;;;;;;;5.74;68.74;100185.28;3182607;28;20047;-78
2020/12/20 01:25:41;;;;;;;8.65;4.85;;;;;;;5.62;69.02;100183.50;3173445;27;20060;-79
2020/12/20 01:27:12;;;;;;;7.55;4.15;;;;;;;5.62;69.17;100186.16;3169536;28;20156;-78
2020/12/20 01:28:44;;;;;;;7.13;3.75;;;;;;;5.65;69.13;100187.75;3166016;27;20054;-78
2020/12/20 01:30:16;;;;;;;7.53;4.32;;;;;;;5.63;69.03;100185.19;3165605;28;20763;-78
2020/12/20 01:31:49;;;;;;;8.05;4.78;;;;;;;5.58;68.96;100182.00;3153716;28;20041;-78
2020/12/20 01:33:20;;;;;;;7.43;4.40;;;;;;;5.56;69.15;100183.97;3167286;28;20056;-79
2020/12/20 01:34:51;;;;;;;8.77;5.35;;;;;;;5.43;69.39;100182.16;3162276;27;20081;-79
2020/12/20 01:36:24;;;;;;;9.05;5.45;;;;;;;5.34;69.74;100174.03;3161621;28;20068;-78
2020/12/20 01:37:55;;;;;;;9.25;5.97;;;;;;;5.30;69.83;100176.88;3166781;27;20078;-79
2020/12/20 01:39:27;;;;;;;8.07;4.82;;;;;;;5.25;70.04;100176.34;3168095;28;20079;-79
2020/12/20 01:40:58;;;;;;;8.77;5.72;;;;;;;5.14;70.31;100177.09;3168288;27;20056;-78
2020/12/20 01:42:29;;;;;;;9.75;5.50;;;;;;;5.12;70.42;100173.69;3170714;27;20038;-79
2020/12/20 01:44:00;;;;;;;8.63;5.18;;;;;;;5.11;70.36;100163.22;3178609;27;20399;-79
2020/12/20 01:45:31;;;;;;;12.68;4.10;;;;;;;5.18;70.30;100168.94;3188757;27;20529;-80
2020/12/20 01:47:04;;;;;;;7.00;3.95;;;;;;;5.27;70.13;100166.47;3183901;27;20046;-79
2020/12/20 01:48:37;;;;;;;6.95;3.85;;;;;;;5.33;70.02;100162.56;3194729;27;20070;-78
2020/12/20 01:50:08;;;;;;;7.85;3.47;;;;;;;5.43;69.63;100160.13;3177885;27;20043;-79
2020/12/20 01:51:40;;;;;;;7.68;4.03;;;;;;;5.37;69.73;100166.69;3169669;28;20044;-79
2020/12/20 01:53:12;;;;;;;6.50;3.92;;;;;;;5.39;69.76;100167.41;3179819;27;20078;-78
2020/12/20 01:54:45;;;;;;;7.45;3.70;;;;;;;5.42;69.66;100167.22;3185695;27;20053;-79
2020/12/20 01:56:17;;;;;;;5.93;3.45;;;;;;;5.49;69.49;100169.41;3188823;27;20486;-78
2020/12/20 01:58:08;;;;;;;6.45;3.40;;;;;;;5.54;69.27;100175.25;3186244;27;20043;-78
2020/12/20 01:59:59;;;;;;;6.13;3.50;;;;;;;5.56;69.28;100162.75;3179403;27;20121;-78
2020/12/20 02:01:42;;;;;;;;;;;;;;;5.47;69.28;100165.09;3180883;27;20127;-78
2020/12/20 02:03:16;;;;;;;5.68;3.17;;;;;;;5.58;69.29;100166.09;3177946;27;19924;-79
2020/12/20 02:04:48;;;;;;;6.38;3.65;;;;;;;5.58;69.38;100168.75;3174123;27;20054;-78
2020/12/20 02:06:20;;;;;;;6.32;3.58;;;;;;;5.57;69.42;100159.97;3174443;27;20726;-78
2020/12/20 02:07:50;;;;;;;8.35;4.60;;;;;;;5.57;69.35;100165.28;3178772;27;20038;-78
2020/12/20 02:09:23;;;;;;;5.95;3.25;;;;;;;5.57;69.50;100169.75;3181794;28;20047;-78
2020/12/20 02:11:08;;;;;;;7.43;3.75;;;;;;;5.55;69.28;100166.34;3167083;27;20502;-78
2020/12/20 02:12:39;;;;;;;7.18;4.28;;;;;;;5.51;69.61;100165.72;3178587;27;20160;-78
2020/12/20 02:14:11;;;;;;;7.70;4.40;;;;;;;5.47;69.67;100158.94;3180142;27;20052;-80
2020/12/20 02:15:43;;;;;;;7.47;4.80;;;;;;;5.49;69.71;100153.50;3175989;28;20086;-78
2020/12/20 02:17:15;;;;;;;7.07;3.33;;;;;;;5.51;69.73;100162.19;3176740;27;20497;-78
2020/12/20 02:18:47;;;;;;;6.07;3.70;;;;;;;5.56;69.54;100165.38;3180948;27;20039;-79
2020/12/20 02:20:19;;;;;;;6.22;3.58;;;;;;;5.57;69.56;100167.91;3178671;28;20086;-79
2020/12/20 02:21:51;;;;;;;8.13;4.65;;;;;;;5.57;69.46;100169.75;3177110;27;20067;-79
2020/12/20 02:23:23;;;;;;;7.82;4.90;;;;;;;5.55;69.55;100164.53;3172515;27;20047;-78
2020/12/20 02:24:55;;;;;;;8.32;4.50;;;;;;;5.53;69.73;100168.25;3181382;27;20043;-78
2020/12/20 02:26:27;;;;;;;7.10;3.40;;;;;;;5.57;69.56;100164.44;3189953;27;20133;-79
2020/12/20 02:28:05;;;;;;;8.27;4.63;;;;;;;5.57;69.33;100162.63;3177768;27;20058;-78
2020/12/20 02:29:36;;;;;;;7.68;4.40;;;;;;;5.59;69.52;100162.50;3169701;28;20138;-79
2020/12/20 02:31:08;;;;;;;8.13;4.45;;;;;;;5.63;69.37;100174.59;3165565;27;20500;-80
2020/12/20 02:32:38;;;;;;;6.47;3.40;;;;;;;5.67;69.39;100176.06;3173059;27;20558;-79
2020/12/20 02:34:10;;;;;;;7.10;3.80;;;;;;;5.66;69.36;100163.78;3177808;27;20043;-79
2020/12/20 02:35:45;;;;;;;7.72;4.20;;;;;;;5.70;69.22;100170.53;3172052;27;20040;-78
2020/12/20 02:39:16;;;;;;;6.15;3.55;;;;;;;5.70;69.46;100164.41;3092176;28;20360;-78
2020/12/20 02:40:47;;;;;;;5.53;2.85;;;;;;;5.70;69.31;100159.94;3059348;28;20052;-80
2020/12/20 02:42:18;;;;;;;8.32;4.40;;;;;;;5.65;69.42;100159.44;3045192;29;20052;-78
2020/12/20 02:43:50;;;;;;;8.13;4.45;;;;;;;5.61;69.72;100160.59;3044322;29;20052;-80
2020/12/20 02:45:28;;;;;;;8.07;4.63;;;;;;;5.62;69.63;100151.69;3043020;29;20052;-78
2020/12/20 02:47:10;;;;;;;7.25;4.30;;;;;;;5.65;69.72;100161.22;3031348;28;20405;-80
2020/12/20 02:48:40;;;;;;;6.40;3.83;;;;;;;5.66;69.64;100158.47;3034804;29;20064;-78
2020/12/20 02:50:12;;;;;;;7.78;4.28;;;;;;;5.73;69.57;100164.16;3029335;29;20072;-78
2020/12/20 02:51:43;;;;;;;6.47;4.00;;;;;;;5.66;69.64;100162.91;3044054;29;20123;-78
2020/12/20 02:53:14;;;;;;;7.78;4.40;;;;;;;5.65;69.73;100164.72;3035037;29;20052;-78
2020/12/20 02:54:46;;;;;;;9.20;3.80;;;;;;;5.66;69.57;100155.81;3034723;29;20064;-78
2020/12/20 02:56:19;;;;;;;8.18;4.57;;;;;;;5.75;69.45;100168.41;3042057;28;20487;-78
2020/12/20 02:57:50;;;;;;;6.65;3.85;;;;;;;5.73;69.39;100172.13;3052097;29;20048;-78
2020/12/20 02:59:22;;;;;;;7.60;4.15;;;;;;;5.78;69.49;100162.88;3038807;28;20072;-79
2020/12/20 03:00:53;;;;;;;8.18;4.45;;;;;;;5.77;69.06;100163.81;3039186;29;20499;-78
2020/12/20 03:02:24;;;;;;;7.05;4.18;;;;;;;5.73;69.43;100165.03;3033165;28;20092;-78
2020/12/20 03:03:56;;;;;;;8.85;4.32;;;;;;;5.70;69.41;100157.28;3037232;29;20076;-78
2020/12/20 03:05:27;;;;;;;7.10;4.00;;;;;;;5.66;69.47;100158.47;3045172;28;20512;-78
2020/12/20 03:06:58;;;;;;;8.70;5.03;;;;;;;5.71;69.29;100163.44;3037904;29;20056;-78
2020/12/20 03:08:30;;;;;;;6.95;3.88;;;;;;;5.73;69.29;100164.16;3030704;28;20524;-79
2020/12/20 03:10:04;;;;;;;9.05;4.50;;;;;;;5.66;69.28;100161.13;3030117;29;20049;-78
2020/12/20 03:11:35;;;;;;;7.55;3.70;;;;;;;5.68;69.59;100167.16;3047550;29;20051;-78
2020/12/20 03:13:06;;;;;;;6.53;3.58;;;;;;;5.72;69.48;100160.66;3041889;28;20041;-78
2020/12/20 03:14:38;;;;;;;6.65;3.92;;;;;;;5.72;69.52;100155.38;3035234;29;20049;-78
2020/12/20 03:16:09;;;;;;;7.70;4.55;;;;;;;5.68;69.72;100161.00;3034916;29;20064;-78
2020/12/20 03:17:40;;;;;;;7.07;3.85;;;;;;;5.70;69.94;100157.28;3045791;29;20110;-79
2020/12/20 03:19:13;;;;;;;7.47;3.90;;;;;;;5.63;69.99;100148.06;3047760;28;20076;-79
2020/12/20 03:20:44;;;;;;;6.85;4.30;;;;;;;5.63;70.39;100151.56;3050048;29;20044;-79
2020/12/20 03:22:16;;;;;;;9.02;4.57;;;;;;;5.58;70.51;100156.34;3047949;28;20068;-79
2020/12/20 03:23:48;;;;;;;9.93;5.70;;;;;;;5.52;70.49;100150.63;3039235;29;20063;-79
2020/12/20 03:25:20;;;;;;;8.80;4.70;;;;;;;5.44;70.92;100149.41;3038731;29;20072;-79
2020/12/20 03:26:51;;;;;;;8.00;4.28;;;;;;;5.47;71.14;100148.31;3045340;29;20048;-79
2020/12/20 03:28:22;;;;;;;6.93;4.20;;;;;;;5.46;71.12;100142.19;3045834;28;20086;-79
2020/12/20 03:29:53;;;;;;;7.30;4.07;;;;;;;5.49;71.15;100154.38;3055963;29;20048;-79
2020/12/20 03:31:25;;;;;;;6.65;3.60;;;;;;;5.56;71.02;100157.44;3048817;28;20052;-78
2020/12/20 03:32:55;;;;;;;6.05;3.40;;;;;;;5.58;70.93;100158.16;3060914;28;20039;-79
2020/12/20 03:34:27;;;;;;;4.93;2.83;;;;;;;5.62;71.00;100156.97;3048138;28;20055;-79
2020/12/20 03:35:58;;;;;;;5.93;3.25;;;;;;;5.65;70.93;100156.78;3049293;29;20056;-79
2020/12/20 03:37:37;;;;;;;7.38;4.30;;;;;;;5.64;70.75;100155.06;3052151;28;20762;-79
2020/12/20 03:39:07;;;;;;;7.80;3.97;;;;;;;5.61;71.08;100148.19;3063327;29;20058;-78
2020/12/20 03:40:55;;;;;;;6.85;4.20;;;;;;;5.61;70.98;100142.88;3061425;28;20154;-79
2020/12/20 03:42:27;;;;;;;6.47;3.75;;;;;;;5.66;71.15;100147.00;3056668;28;20048;-79
2020/12/20 03:43:58;;;;;;;6.00;3.88;;;;;;;5.67;71.12;100149.53;3056878;29;20479;-79
2020/12/20 03:45:29;;;;;;;7.63;4.22;;;;;;;5.65;71.20;100151.47;3056332;29;20078;-78
2020/12/20 03:47:00;;;;;;;8.15;4.90;;;;;;;5.60;71.37;100141.19;3055405;29;20075;-79
2020/12/20 03:48:32;;;;;;;9.05;5.50;;;;;;;5.57;71.43;100145.88;3065045;28;20040;-80
2020/12/20 03:50:03;;;;;;;7.85;4.30;;;;;;;5.52;71.51;100145.34;3046585;28;20108;-78
2020/12/20 03:51:36;;;;;;;6.68;4.35;;;;;;;5.54;71.55;100138.97;3048399;29;20078;-78
2020/12/20 03:53:08;;;;;;;6.50;4.05;;;;;;;5.53;71.71;100149.69;3047635;29;20075;-79
2020/12/20 03:54:41;;;;;;;7.28;3.80;;;;;;;5.60;71.56;100149.16;3046886;29;20068;-79
2020/12/20 03:56:13;;;;;;;7.18;3.90;;;;;;;5.63;71.33;100153.38;3052175;28;20080;-79
2020/12/20 03:57:46;;;;;;;6.35;3.25;;;;;;;5.67;71.46;100159.31;3056524;29;20051;-78
2020/12/20 03:59:17;;;;;;;8.18;4.88;;;;;;;5.66;71.36;100150.50;3050395;29;20075;-78
2020/12/20 04:00:50;;;;;;;8.00;5.05;;;;;;;5.58;71.74;100152.84;3056131;29;20056;-80
2020/12/20 04:02:21;;;;;;;7.70;4.43;;;;;;;5.61;71.53;100149.97;3053504;28;20084;-79
2020/12/20 04:03:55;;;;;;;7.22;4.07;;;;;;;5.60;71.70;100142.97;3054211;29;20569;-79
2020/12/20 04:05:26;;;;;;;6.72;3.55;;;;;;;5.62;71.60;100149.03;3040831;29;20048;-79
2020/12/20 04:06:57;;;;;;;6.82;3.67;;;;;;;5.63;71.59;100140.94;3048329;28;20092;-79
2020/12/20 04:08:28;;;;;;;5.82;3.05;;;;;;;5.70;71.50;100146.66;3043680;29;20420;-79
2020/12/20 04:09:59;;;;;;;6.88;3.78;;;;;;;5.75;71.41;100157.81;3049889;29;20067;-79
2020/12/20 04:11:32;;;;;;;5.93;3.35;;;;;;;5.80;71.20;100160.13;3055255;29;20818;-79
2020/12/20 04:13:03;;;;;;;5.90;3.55;;;;;;;5.76;71.30;100150.69;3047258;28;20423;-78
2020/12/20 04:14:35;;;;;;;6.75;3.80;;;;;;;5.76;71.33;100159.47;3052273;29;20083;-79
2020/12/20 04:16:06;;;;;;;5.88;2.97;;;;;;;5.77;71.31;100158.53;3041323;29;20061;-78
2020/12/20 04:17:37;;;;;;;6.43;3.28;;;;;;;5.77;71.41;100161.16;3056953;29;20062;-78
2020/12/20 04:19:08;;;;;;;7.88;3.67;;;;;;;5.78;71.38;100157.56;3054610;28;20881;-79
2020/12/20 04:20:40;;;;;;;7.30;3.47;;;;;;;5.78;71.30;100165.53;3049240;29;20064;-79
2020/12/20 04:22:11;;;;;;;6.90;3.90;;;;;;;5.77;71.33;100157.69;3058019;29;20051;-78
2020/12/20 04:23:41;;;;;;;6.18;3.53;;;;;;;5.70;71.69;100159.94;3053788;29;20055;-79
2020/12/20 04:25:23;;;;;;;7.72;4.65;;;;;;;5.65;71.32;100151.47;3056398;28;20643;-79
2020/12/20 04:26:56;;;;;;;6.50;3.78;;;;;;;5.65;71.63;100153.25;3056132;29;20594;-78
2020/12/20 04:28:27;;;;;;;6.22;3.88;;;;;;;5.67;71.66;100151.34;3039460;29;20536;-79
2020/12/20 04:29:59;;;;;;;7.25;3.92;;;;;;;5.66;71.54;100150.50;3051464;29;20056;-79
2020/12/20 04:31:32;;;;;;;7.30;4.35;;;;;;;5.60;71.60;100148.28;3050973;29;20075;-79
2020/12/20 04:33:03;;;;;;;7.65;5.05;;;;;;;5.54;71.71;100146.09;3053332;29;20055;-79
2020/12/20 04:34:35;;;;;;;8.57;5.10;;;;;;;5.41;72.22;100146.13;3051668;28;20063;-79
2020/12/20 04:36:06;;;;;;;8.05;4.40;;;;;;;5.38;72.26;100149.84;3055981;29;20450;-80
2020/12/20 04:41:22;;;;;;;7.32;3.92;;;;;;;5.43;72.27;100150.34;3170399;28;20096;-78
2020/12/20 04:42:59;;;;;;;6.70;3.72;;;;;;;5.50;72.16;100152.56;3176077;28;20044;-79
2020/12/20 04:44:47;;;;;;;7.25;4.13;;;;;;;5.45;72.16;100135.19;3172629;28;20036;-80
2020/12/20 04:46:20;;;;;;;7.13;3.65;;;;;;;5.52;72.19;100150.63;3158052;28;20048;-79
2020/12/20 04:47:51;;;;;;;5.90;3.58;;;;;;;5.50;72.02;100153.41;3168904;28;20444;-80
2020/12/20 04:49:29;;;;;;;7.07;4.05;;;;;;;5.55;72.15;100153.91;3160034;28;20040;-79
2020/12/20 04:51:01;;;;;;;6.68;3.35;;;;;;;5.57;72.16;100167.09;3158032;28;20052;-79
2020/12/20 04:52:33;;;;;;;6.05;4.03;;;;;;;5.55;72.15;100153.09;3157433;28;20050;-79
2020/12/20 04:54:09;;;;;;;8.63;4.03;;;;;;;5.54;72.04;100154.03;3158249;28;20045;-79
2020/12/20 04:55:44;;;;;;;7.20;4.15;;;;;;;5.55;72.09;100155.75;3158653;28;20036;-79
2020/12/20 04:57:16;;;;;;;6.82;3.95;;;;;;;5.55;72.17;100166.34;3160436;28;20032;-78
2020/12/20 04:58:48;;;;;;;9.65;5.20;;;;;;;5.49;72.22;100164.97;3159792;28;20114;-78
2020/12/20 05:00:20;;;;;;;7.07;4.30;;;;;;;5.44;72.43;100160.00;3156899;28;20056;-79
2020/12/20 05:01:51;;;;;;;8.18;4.47;;;;;;;5.52;72.30;100166.56;3149412;28;20045;-79
2020/12/20 05:03:22;;;;;;;5.03;2.80;;;;;;;5.56;72.24;100168.88;3151841;28;20079;-78
2020/12/20 05:04:53;;;;;;;8.50;4.93;;;;;;;5.53;72.22;100158.47;3155100;28;20048;-78
2020/12/20 05:06:25;;;;;;;6.78;3.65;;;;;;;5.52;72.34;100162.13;3155799;28;20043;-79
2020/12/20 05:07:57;;;;;;;6.25;3.45;;;;;;;5.54;72.17;100164.66;3155348;28;20054;-78
2020/12/20 05:09:28;;;;;;;6.32;3.72;;;;;;;5.57;72.23;100159.97;3156835;28;20074;-79
2020/12/20 05:11:00;;;;;;;7.50;4.75;;;;;;;5.56;72.00;100162.75;3152499;28;20057;-79
2020/12/20 05:12:34;;;;;;;7.63;4.57;;;;;;;5.50;72.25;100156.06;3152426;28;20120;-78
2020/12/20 05:14:08;;;;;;;9.35;4.10;;;;;;;5.40;72.23;100153.19;3162981;28;20043;-79
2020/12/20 05:15:40;;;;;;;7.63;4.80;;;;;;;5.40;72.50;100142.59;3156690;28;20046;-79
2020/12/20 05:17:17;;;;;;;9.55;5.82;;;;;;;5.31;72.47;100144.13;3158203;28;20097;-78
2020/12/20 05:18:48;;;;;;;7.50;5.07;;;;;;;5.16;72.90;100147.81;3155673;28;20044;-78
2020/12/20 05:20:35;;;;;;;7.43;4.60;;;;;;;5.21;72.86;100144.84;3156013;28;20040;-79
2020/12/20 05:22:17;;;;;;;6.07;3.30;;;;;;;5.25;72.91;100155.13;3151704;28;20047;-77
2020/12/20 05:23:48;;;;;;;8.23;4.47;;;;;;;5.28;72.76;100148.78;3160091;28;20561;-78
2020/12/20 05:25:21;;;;;;;8.05;3.88;;;;;;;5.35;72.66;100159.78;3154592;28;20083;-78
2020/12/20 05:26:52;;;;;;;6.05;3.50;;;;;;;5.36;72.63;100151.75;3156080;28;20478;-78
2020/12/20 05:28:24;;;;;;;6.32;3.63;;;;;;;5.42;72.52;100161.91;3154515;28;20044;-79
2020/12/20 05:29:56;;;;;;;6.38;3.70;;;;;;;5.42;72.44;100150.47;3155802;28;20063;-78
2020/12/20 05:31:30;;;;;;;6.15;3.55;;;;;;;5.42;72.51;100151.28;3147033;28;20067;-79
2020/12/20 05:33:02;;;;;;;6.80;3.65;;;;;;;5.43;72.59;100152.16;3155304;28;20083;-79
2020/12/20 05:34:33;;;;;;;7.03;4.30;;;;;;;5.41;72.48;100154.91;3158404;28;20415;-79
2020/12/20 05:36:06;;;;;;;5.88;3.08;;;;;;;5.45;72.47;100160.84;3149342;28;20056;-79
2020/12/20 05:37:39;;;;;;;6.32;3.17;;;;;;;5.46;72.37;100147.47;3149137;28;20079;-79
2020/12/20 05:39:15;;;;;;;7.65;4.72;;;;;;;5.50;72.42;100163.16;3157265;28;20083;-79
2020/12/20 05:40:47;;;;;;;7.40;3.67;;;;;;;5.53;72.46;100162.94;3152851;28;20502;-79
2020/12/20 05:42:22;;;;;;;6.07;3.22;;;;;;;5.51;72.32;100155.13;3154639;28;20048;-79
2020/12/20 05:43:53;;;;;;;6.90;3.80;;;;;;;5.49;72.25;100156.16;3154805;28;20055;-79
2020/12/20 05:45:26;;;;;;;6.72;3.83;;;;;;;5.52;72.38;100154.16;3154939;28;20068;-78
2020/12/20 05:47:05;;;;;;;8.93;5.25;;;;;;;5.40;72.38;100142.59;3155189;28;20082;-79
2020/12/20 05:48:43;;;;;;;7.40;3.83;;;;;;;5.48;72.49;100150.00;3157534;28;20072;-79
2020/12/20 05:50:14;;;;;;;6.70;3.80;;;;;;;5.51;72.41;100146.28;3150656;28;20052;-78
2020/12/20 05:52:02;;;;;;;7.03;3.92;;;;;;;5.45;72.23;100139.63;3153422;28;20048;-79
2020/12/20 05:53:36;;;;;;;7.07;4.00;;;;;;;5.47;72.44;100138.56;3149118;28;20057;-79
2020/12/20 05:55:11;;;;;;;7.95;4.55;;;;;;;5.51;72.37;100160.41;3144944;27;20079;-79
2020/12/20 05:57:04;;;;;;;7.20;4.50;;;;;;;5.47;72.28;100158.94;3150720;28;20058;-79
2020/12/20 05:58:36;;;;;;;6.65;3.47;;;;;;;5.45;72.47;100151.09;3142956;28;20040;-79
2020/12/20 06:00:08;;;;;;;7.93;4.70;;;;;;;5.47;72.37;100167.75;3137266;28;20569;-79
2020/12/20 06:01:41;;;;;;;6.95;4.30;;;;;;;5.45;72.51;100155.53;3133799;28;20076;-79
2020/12/20 06:03:13;;;;;;;8.95;5.18;;;;;;;5.35;72.79;100158.00;3140709;28;20052;-78
2020/12/20 06:04:47;;;;;;;8.38;5.03;;;;;;;5.29;72.85;100155.78;3141552;28;20052;-78
2020/12/20 06:06:24;;;;;;;7.75;4.57;;;;;;;5.31;72.87;100161.81;3156161;28;20075;-79
2020/12/20 06:08:02;;;;;;;7.55;4.63;;;;;;;5.32;72.86;100163.50;3151513;28;20079;-79
2020/12/20 06:09:42;;;;;;;7.82;3.50;;;;;;;5.42;72.59;100166.38;3151550;28;20109;-78
2020/12/20 06:11:31;;;;;;;6.60;3.72;;;;;;;5.38;72.64;100173.69;3136877;28;20056;-79
2020/12/20 06:13:07;;;;;;;10.18;3.70;;;;;;;5.40;72.75;100182.38;3134845;28;20049;-78
2020/12/20 06:14:45;;;;;;;7.60;4.45;;;;;;;5.39;72.72;100170.06;3134774;28;20084;-79
2020/12/20 06:16:23;;;;;;;7.35;4.30;;;;;;;5.42;72.75;100177.81;3138313;28;20045;-79
2020/12/20 06:17:55;;;;;;;9.73;5.63;;;;;;;5.28;73.09;100168.19;3143535;28;20045;-79
2020/12/20 06:19:37;;;;;;;9.98;5.30;;;;;;;5.24;73.36;100164.03;3143761;28;20510;-78
2020/12/20 06:21:15;;;;;;;7.50;4.70;;;;;;;5.24;73.35;100179.09;3150474;28;20758;-79
2020/12/20 06:23:02;;;;;;;5.70;3.60;;;;;;;5.27;73.22;100170.94;3141668;28;20499;-78
2020/12/20 06:24:35;;;;;;;9.18;5.57;;;;;;;5.17;73.30;100168.06;3143625;28;20498;-79
2020/12/20 06:26:06;;;;;;;7.57;5.00;;;;;;;5.14;73.60;100169.16;3144625;28;20045;-78
2020/12/20 06:27:46;;;;;;;9.20;4.57;;;;;;;5.21;73.57;100180.19;3142630;28;20521;-78
2020/12/20 06:29:22;;;;;;;7.18;4.10;;;;;;;5.24;73.46;100176.47;3145281;28;20056;-78
2020/12/20 06:30:56;;;;;;;8.43;5.32;;;;;;;5.24;73.39;100179.94;3148822;28;20453;-78
2020/12/20 06:32:35;;;;;;;7.53;4.40;;;;;;;5.25;73.27;100184.28;3145892;28;20047;-78
2020/12/20 06:34:14;;;;;;;7.97;4.68;;;;;;;5.27;73.17;100177.09;3148838;28;20053;-78
2020/12/20 06:35:51;;;;;;;7.30;4.57;;;;;;;5.24;73.44;100176.47;3140751;28;20487;-78
2020/12/20 06:37:23;;;;;;;6.13;3.55;;;;;;;5.29;73.49;100184.94;3140650;28;20072;-78
2020/12/20 06:38:55;;;;;;;7.75;3.60;;;;;;;5.36;73.27;100190.66;3138333;28;20044;-78
2020/12/20 06:40:42;;;;;;;6.50;4.00;;;;;;;5.37;73.18;100185.25;3145276;28;20495;-77
2020/12/20 06:42:13;;;;;;;8.13;4.85;;;;;;;5.36;73.23;100178.25;3143704;28;20101;-78
2020/12/20 06:43:45;;;;;;;7.38;4.45;;;;;;;5.40;73.37;100190.31;3144305;28;20053;-77
2020/12/20 06:45:23;;;;;;;7.18;4.38;;;;;;;5.44;72.98;100191.81;3153857;28;20124;-78
2020/12/20 06:46:55;;;;;;;6.82;3.78;;;;;;;5.49;73.00;100193.28;3135448;28;20074;-78
2020/12/20 06:48:34;;;;;;;6.60;4.25;;;;;;;5.45;73.05;100196.16;3135084;28;20091;-79
2020/12/20 06:50:05;;;;;;;7.78;4.90;;;;;;;5.40;73.35;100189.50;3119899;28;20053;-78
2020/12/20 06:51:36;;;;;;;8.93;5.13;;;;;;;5.40;73.36;100197.44;3137244;28;20898;-78
2020/12/20 06:53:08;;;;;;;8.88;5.57;;;;;;;5.34;73.21;100184.63;3133463;28;20099;-78
2020/12/20 06:54:39;;;;;;;8.90;5.47;;;;;;;5.29;73.64;100195.56;3131855;28;20134;-78
2020/12/20 06:56:14;;;;;;;8.38;4.22;;;;;;;5.31;73.45;100204.22;3134736;28;20049;-78
2020/12/20 06:58:17;;;;;;;7.45;4.72;;;;;;;5.25;73.57;100202.00;3136962;28;20709;-78
2020/12/20 06:59:47;;;;;;;7.20;3.92;;;;;;;5.28;73.57;100209.75;3106371;28;20038;-78
2020/12/20 07:01:36;;;;;;;6.47;3.95;;;;;;;5.28;73.59;100199.16;3108475;28;20049;-78
2020/12/20 07:03:09;;;;;;;7.90;4.65;;;;;;;5.31;73.54;100207.75;3147094;28;20060;-77
2020/12/20 07:04:41;;;;;;;7.20;4.10;;;;;;;5.32;73.44;100205.91;3141310;28;20049;-78
2020/12/20 07:06:17;;;;;;;11.55;5.28;;;;;;;5.28;73.32;100207.09;3140604;28;20075;-78
2020/12/20 07:08:07;;;;;;;7.68;5.32;;;;;;;5.15;73.75;100213.25;3140878;28;21034;-78
2020/12/20 07:09:38;;;;;;;7.25;4.07;;;;;;;5.25;73.82;100209.97;3139563;28;20044;-78
2020/12/20 07:11:20;;;;;;;12.55;6.82;;;;;;;5.26;73.54;100219.63;3149831;28;20048;-77
2020/12/20 07:12:52;;;;;;;50.50;26.30;;;;;;;5.23;73.93;100215.38;3142832;28;20469;-78
2020/12/20 07:14:23;;;;;;;24.05;13.68;;;;;;;5.22;73.86;100212.81;3142420;28;20064;-78
2020/12/20 07:15:54;;;;;;;16.20;9.10;;;;;;;5.24;73.85;100221.50;3141359;28;20048;-78
2020/12/20 07:19:25;;;;;;;10.65;5.88;;;;;;;5.27;73.59;100222.16;3202061;27;20400;-78
2020/12/20 07:20:55;;;;;;;8.57;5.15;;;;;;;5.23;73.71;100215.38;3173785;27;20409;-78
2020/12/20 07:22:27;;;;;;;7.95;4.80;;;;;;;5.19;73.91;100216.53;3175196;27;20039;-79
2020/12/20 07:24:03;;;;;;;7.85;4.93;;;;;;;5.17;73.57;100221.09;3167365;28;20055;-79
2020/12/20 07:25:36;;;;;;;8.50;4.53;;;;;;;5.20;73.67;100215.59;3167086;28;20060;-79
2020/12/20 07:27:08;;;;;;;7.70;4.43;;;;;;;5.19;73.91;100224.50;3165148;28;20117;-78
2020/12/20 07:28:40;;;;;;;8.57;4.90;;;;;;;5.20;73.90;100227.97;3168563;27;20352;-78
2020/12/20 07:30:13;;;;;;;7.28;4.47;;;;;;;5.27;73.91;100226.63;3173180;27;20052;-78
2020/12/20 07:31:45;;;;;;;6.93;3.80;;;;;;;5.32;73.74;100235.09;3174775;27;20144;-78
2020/12/20 07:33:17;;;;;;;6.35;3.22;;;;;;;5.36;73.56;100236.59;3179059;27;20082;-79
2020/12/20 07:34:50;;;;;;;8.00;4.47;;;;;;;5.36;73.55;100236.59;3174912;27;20469;-78